Corpus Christi, Texas
Current Conditions -  °F | °C
As of 1:51 AM on Sunday 23 Nov 2014 (Local Time) from KCRP Reporting Station
Broken Clouds Broken Clouds  
Wind Chill: 63°   Ceiling: 9500
Heat Index: 63°   Visibility: 10mi
Dew Point: 60°   Wind: 12mph
Humidity: 90%   Direction: 210°SSW
Pressure: 29.74"   Gusts: NA
Location:  27.8°N, 97.4°W
Report Text: KCRP 230751Z 21010KT 10SM FEW080 BKN095 BKN220 17/16 A2974 RMK AO2 SLP069 T01720156 $
Loading
Personal Weather Stations






























Interactive Weather Map New forecast layout! Learn more

10-Day Weather Forecast

Advertisements
Track Severe Weather on mobile